createdAt,value
2023-05-20T00:00:02.970Z,41.68
2023-05-20T00:02:38.509Z,41.79
2023-05-20T00:05:12.776Z,41.71
2023-05-20T00:08:04.605Z,41.05
2023-05-20T00:10:38.455Z,41.75
2023-05-20T00:13:12.935Z,41.70
2023-05-20T00:16:01.330Z,41.01
2023-05-20T00:18:35.268Z,41.81
2023-05-20T00:21:09.288Z,42.03
2023-05-20T00:23:43.215Z,42.31
2023-05-20T00:26:32.026Z,41.71
2023-05-20T00:29:06.031Z,42.47
2023-05-20T00:31:39.715Z,42.57
2023-05-20T00:34:13.650Z,42.73
2023-05-20T00:37:01.966Z,42.12
2023-05-20T00:39:35.841Z,42.91
2023-05-20T00:42:24.710Z,42.45
2023-05-20T00:44:59.472Z,43.04
2023-05-20T00:47:47.636Z,42.56
2023-05-20T00:50:21.799Z,43.27
2023-05-20T00:52:56.237Z,43.34
2023-05-20T00:55:44.250Z,42.54
2023-05-20T00:58:17.881Z,43.30
2023-05-20T01:00:51.753Z,43.64
2023-05-20T01:03:26.184Z,43.66
2023-05-20T01:06:15.147Z,42.73
2023-05-20T01:08:48.946Z,43.43
2023-05-20T01:11:26.468Z,43.72
2023-05-20T01:14:03.466Z,43.85
2023-05-20T01:16:53.961Z,42.92
2023-05-20T01:19:34.125Z,43.84
2023-05-20T01:22:12.404Z,43.81
2023-05-20T01:25:00.158Z,42.84
2023-05-20T01:27:36.017Z,43.89
2023-05-20T01:30:25.509Z,43.42
2023-05-20T01:33:02.486Z,44.59
2023-05-20T01:35:53.661Z,43.84
2023-05-20T01:38:28.593Z,44.59
2023-05-20T01:41:04.677Z,44.78
2023-05-20T01:43:39.780Z,44.66
2023-05-20T01:46:29.047Z,43.80
2023-05-20T01:49:02.881Z,44.68
2023-05-20T01:51:37.084Z,45.01
2023-05-20T01:54:11.147Z,45.12
2023-05-20T01:56:59.404Z,44.64
2023-05-20T01:59:33.369Z,44.99
2023-05-20T02:02:07.747Z,45.16
2023-05-20T02:04:42.733Z,45.27
2023-05-20T02:07:30.663Z,44.62
2023-05-20T02:10:04.975Z,45.17
2023-05-20T02:12:40.125Z,45.59
2023-05-20T02:15:14.433Z,45.46
2023-05-20T02:18:02.661Z,45.58
2023-05-20T02:20:39.662Z,45.91
2023-05-20T02:23:13.374Z,45.68
2023-05-20T02:26:01.697Z,45.15
2023-05-20T02:28:35.514Z,45.97
2023-05-20T02:31:09.346Z,46.14
2023-05-20T02:33:43.188Z,46.42
2023-05-20T02:36:32.576Z,45.55
2023-05-20T02:39:07.507Z,45.91
2023-05-20T02:41:41.099Z,46.08
2023-05-20T02:44:16.811Z,46.30
2023-05-20T02:47:04.507Z,45.64
2023-05-20T02:49:38.233Z,46.27
2023-05-20T02:52:11.951Z,46.46
2023-05-20T02:54:45.739Z,46.47
2023-05-20T02:57:35.061Z,46.05
2023-05-20T03:00:11.952Z,46.82
2023-05-20T03:02:45.773Z,47.05
2023-05-20T03:05:19.836Z,46.87
2023-05-20T03:08:11.044Z,46.15
2023-05-20T03:10:45.040Z,46.42
2023-05-20T03:13:18.979Z,46.06
2023-05-20T03:16:07.882Z,46.16
2023-05-20T03:18:42.089Z,46.58
2023-05-20T03:21:15.992Z,46.59
2023-05-20T03:23:49.678Z,46.88
2023-05-20T03:26:39.631Z,46.38
2023-05-20T03:29:13.693Z,46.87
2023-05-20T03:31:47.456Z,47.09
2023-05-20T03:34:21.359Z,46.97
2023-05-20T03:37:09.726Z,46.74
2023-05-20T03:39:43.478Z,46.81
2023-05-20T03:42:18.174Z,47.13
2023-05-20T03:44:51.988Z,46.82
2023-05-20T03:47:40.606Z,46.33
2023-05-20T03:50:14.780Z,46.59
2023-05-20T03:53:03.246Z,46.20
2023-05-20T03:55:38.857Z,46.59
2023-05-20T03:58:13.684Z,46.84
2023-05-20T04:01:01.566Z,46.37
2023-05-20T04:03:35.977Z,46.49
2023-05-20T04:06:24.937Z,46.29
2023-05-20T04:08:58.642Z,46.50
2023-05-20T04:11:48.117Z,46.36
2023-05-20T04:14:22.745Z,46.50
2023-05-20T04:16:56.947Z,46.47
2023-05-20T04:19:31.077Z,46.65
2023-05-20T04:22:18.832Z,46.43
2023-05-20T04:24:52.888Z,46.49
2023-05-20T04:27:41.263Z,46.01
2023-05-20T04:30:18.019Z,46.25
2023-05-20T04:33:06.763Z,45.77
2023-05-20T04:35:41.860Z,46.30
2023-05-20T04:38:30.603Z,45.68
2023-05-20T04:41:06.871Z,45.71
2023-05-20T04:43:54.730Z,45.60
2023-05-20T04:46:28.611Z,45.66
2023-05-20T04:49:16.510Z,45.39
2023-05-20T04:51:51.730Z,45.46
2023-05-20T04:54:25.407Z,45.33
2023-05-20T04:57:13.996Z,45.26
2023-05-20T04:59:47.898Z,45.05
2023-05-20T05:02:21.654Z,45.02
2023-05-20T05:05:10.994Z,44.99
2023-05-20T05:07:46.109Z,45.03
2023-05-20T05:10:34.591Z,44.79
2023-05-20T05:13:08.775Z,44.85
2023-05-20T05:16:09.389Z,45.06
2023-05-20T05:18:43.956Z,45.16
2023-05-20T05:21:17.555Z,43.27
2023-05-20T05:23:53.164Z,44.31
2023-05-20T05:26:41.684Z,44.11
2023-05-20T05:29:17.773Z,43.93
2023-05-20T05:31:51.581Z,43.69
2023-05-20T05:34:25.605Z,43.85
2023-05-20T05:37:13.656Z,43.67
2023-05-20T05:39:48.305Z,43.42
2023-05-20T05:42:36.420Z,43.28
2023-05-20T05:45:12.990Z,43.03
2023-05-20T05:48:00.953Z,42.70
2023-05-20T05:50:36.455Z,42.63
2023-05-20T05:53:24.877Z,42.38
2023-05-20T05:55:58.732Z,42.22
2023-05-20T05:58:48.522Z,42.08
2023-05-20T06:01:22.761Z,41.47
2023-05-20T06:03:56.580Z,41.33
2023-05-20T06:06:44.778Z,41.28
2023-05-20T06:09:18.198Z,41.13
2023-05-20T06:11:52.228Z,40.82
2023-05-20T06:14:26.807Z,40.32
2023-05-20T06:17:15.112Z,40.04
2023-05-20T06:19:48.837Z,39.84
2023-05-20T06:22:23.436Z,39.81
2023-05-20T06:25:13.223Z,39.47
2023-05-20T06:27:48.741Z,39.36
2023-05-20T06:30:24.491Z,39.25
2023-05-20T06:33:12.615Z,38.77
2023-05-20T06:35:46.274Z,38.37
2023-05-20T06:38:34.147Z,37.94
2023-05-20T06:41:08.791Z,37.81
2023-05-20T06:43:56.691Z,37.51
2023-05-20T06:46:48.395Z,37.54
2023-05-20T06:49:22.730Z,37.32
2023-05-20T06:52:11.521Z,37.04
2023-05-20T06:54:45.181Z,36.50
2023-05-20T06:57:34.368Z,35.39
2023-05-20T07:00:10.894Z,34.53
2023-05-20T07:02:46.616Z,32.82
2023-05-20T07:05:21.193Z,30.37
2023-05-20T07:08:09.509Z,30.36
2023-05-20T07:10:43.473Z,30.53
2023-05-20T07:13:17.230Z,29.79
2023-05-20T07:16:06.127Z,28.54
2023-05-20T07:18:41.355Z,26.71
2023-05-20T07:21:15.094Z,27.17
2023-05-20T07:24:23.441Z,28.36
2023-05-20T07:26:57.485Z,28.31
2023-05-20T07:29:45.735Z,27.95
2023-05-20T07:32:33.904Z,27.69
2023-05-20T07:35:43.831Z,27.80
2023-05-20T07:38:36.479Z,27.62
2023-05-20T07:41:32.216Z,25.46
2023-05-20T07:44:22.593Z,26.23
2023-05-20T07:47:11.788Z,25.57
2023-05-20T07:49:46.915Z,25.20
2023-05-20T07:52:20.887Z,24.50
2023-05-20T07:55:10.431Z,24.29
2023-05-20T07:57:44.906Z,23.39
2023-05-20T08:00:33.863Z,23.11
2023-05-20T08:03:09.298Z,23.03
2023-05-20T08:06:10.788Z,22.45
2023-05-20T08:08:59.147Z,21.21
2023-05-20T08:11:34.276Z,22.44
2023-05-20T08:14:22.088Z,22.54
2023-05-20T08:17:10.867Z,23.48
2023-05-20T08:19:58.639Z,22.96
2023-05-20T08:22:32.742Z,23.74
2023-05-20T08:25:20.912Z,24.62
2023-05-20T08:28:08.904Z,24.36
2023-05-20T08:30:43.189Z,24.15
2023-05-20T08:33:31.044Z,23.72
2023-05-20T08:36:04.866Z,22.18
2023-05-20T08:38:53.115Z,20.81
2023-05-20T08:41:41.276Z,22.43
2023-05-20T08:44:16.026Z,23.09
2023-05-20T08:47:04.619Z,25.53
2023-05-20T08:49:38.068Z,25.98
2023-05-20T08:52:26.958Z,26.96
2023-05-20T08:55:17.530Z,27.22
2023-05-20T08:57:51.601Z,26.65
2023-05-20T09:00:39.588Z,26.67
2023-05-20T09:03:28.892Z,26.47
2023-05-20T09:06:08.182Z,26.51
2023-05-20T09:08:55.655Z,26.27
2023-05-20T09:11:43.804Z,26.05
2023-05-20T09:14:17.146Z,25.77
2023-05-20T09:17:07.930Z,26.40
2023-05-20T09:19:57.114Z,27.07
2023-05-20T09:22:31.562Z,27.12
2023-05-20T09:25:23.960Z,27.79
2023-05-20T09:27:58.245Z,27.59
2023-05-20T09:30:46.904Z,26.92
2023-05-20T09:33:20.323Z,27.09
2023-05-20T09:36:09.501Z,27.84
2023-05-20T09:38:44.014Z,28.18
2023-05-20T09:41:35.670Z,28.84
2023-05-20T09:44:09.484Z,29.23
2023-05-20T09:46:59.214Z,29.71
2023-05-20T09:49:34.399Z,30.29
2023-05-20T09:52:22.535Z,30.15
2023-05-20T09:54:57.385Z,30.28
2023-05-20T09:57:45.199Z,29.51
2023-05-20T10:00:20.020Z,29.11
2023-05-20T10:03:08.491Z,28.51
2023-05-20T10:05:45.073Z,28.91
2023-05-20T10:08:41.695Z,29.07
2023-05-20T10:11:18.662Z,29.33
2023-05-20T10:14:19.595Z,29.57
2023-05-20T10:17:10.603Z,29.75
2023-05-20T10:19:45.107Z,29.72
2023-05-20T10:22:33.248Z,29.96
2023-05-20T10:25:10.718Z,30.45
2023-05-20T10:27:48.100Z,30.60
2023-05-20T10:30:36.407Z,30.68
2023-05-20T10:33:24.248Z,30.88
2023-05-20T10:36:00.690Z,30.91
2023-05-20T10:38:33.820Z,30.83
2023-05-20T10:41:25.145Z,31.01
2023-05-20T10:44:12.750Z,31.02
2023-05-20T10:47:00.249Z,30.96
2023-05-20T10:49:37.580Z,30.93
2023-05-20T10:52:12.023Z,30.86
2023-05-20T10:55:01.828Z,30.51
2023-05-20T10:57:37.756Z,30.30
2023-05-20T11:00:25.680Z,30.39
2023-05-20T11:02:59.783Z,31.54
2023-05-20T11:05:48.960Z,32.51
2023-05-20T11:08:36.693Z,33.26
2023-05-20T11:11:11.879Z,33.62
2023-05-20T11:14:00.815Z,34.12
2023-05-20T11:16:34.917Z,34.16
2023-05-20T11:19:23.396Z,34.18
2023-05-20T11:21:56.786Z,34.56
2023-05-20T11:24:44.657Z,34.56
2023-05-20T11:27:18.055Z,34.98
2023-05-20T11:30:07.183Z,34.68
2023-05-20T11:33:02.378Z,34.33
2023-05-20T11:35:51.871Z,33.84
2023-05-20T11:38:39.191Z,34.44
2023-05-20T11:41:12.650Z,34.06
2023-05-20T11:44:05.393Z,33.58
2023-05-20T11:46:43.740Z,33.53
2023-05-20T11:49:31.721Z,33.45
2023-05-20T11:52:06.417Z,33.40
2023-05-20T11:54:57.062Z,33.11
2023-05-20T11:57:32.121Z,33.01
2023-05-20T12:00:22.164Z,32.98
2023-05-20T12:02:55.587Z,32.87
2023-05-20T12:05:43.471Z,32.83
2023-05-20T12:08:17.244Z,32.76
2023-05-20T12:10:50.739Z,32.69
2023-05-20T12:13:47.481Z,32.53
2023-05-20T12:16:20.889Z,32.29
2023-05-20T12:19:09.368Z,32.20
2023-05-20T12:21:43.083Z,31.62
2023-05-20T12:24:30.385Z,31.06
2023-05-20T12:27:04.228Z,30.84
2023-05-20T12:29:51.982Z,30.58
2023-05-20T12:32:25.453Z,30.75
2023-05-20T12:35:14.457Z,30.88
2023-05-20T12:37:48.713Z,30.61
2023-05-20T12:40:38.017Z,30.54
2023-05-20T12:43:12.286Z,30.74
2023-05-20T12:46:00.172Z,30.68
2023-05-20T12:48:33.627Z,30.97
2023-05-20T12:51:21.233Z,31.05
2023-05-20T12:53:55.339Z,30.94
2023-05-20T12:56:29.153Z,30.63
2023-05-20T12:59:17.035Z,30.30
2023-05-20T13:01:51.268Z,30.02
2023-05-20T13:04:39.140Z,29.70
2023-05-20T13:07:26.974Z,29.66
2023-05-20T13:10:00.408Z,29.93
2023-05-20T13:12:48.061Z,30.59
2023-05-20T13:15:21.898Z,30.54
2023-05-20T13:18:10.644Z,30.51
2023-05-20T13:20:44.078Z,30.63
2023-05-20T13:23:17.598Z,30.78
2023-05-20T13:26:05.568Z,30.82
2023-05-20T13:28:38.940Z,30.80
2023-05-20T13:31:12.242Z,30.82
2023-05-20T13:34:00.977Z,30.89
2023-05-20T13:36:48.888Z,30.83
2023-05-20T13:39:22.321Z,31.06
2023-05-20T13:41:55.868Z,31.06
2023-05-20T13:44:43.854Z,31.45
2023-05-20T13:47:17.616Z,31.48
2023-05-20T13:50:05.602Z,31.63
2023-05-20T13:52:39.119Z,31.87
2023-05-20T13:55:13.322Z,32.26
2023-05-20T13:58:01.319Z,32.72
2023-05-20T14:00:36.386Z,33.20
2023-05-20T14:03:10.722Z,33.21
2023-05-20T14:05:58.872Z,32.73
2023-05-20T14:08:32.338Z,32.68
2023-05-20T14:11:20.487Z,32.94
2023-05-20T14:13:53.898Z,33.05
2023-05-20T14:16:41.506Z,33.02
2023-05-20T14:19:15.271Z,33.14
2023-05-20T14:22:03.476Z,32.96
2023-05-20T14:24:36.564Z,32.89
2023-05-20T14:27:24.350Z,33.29
2023-05-20T14:29:57.867Z,33.22
2023-05-20T14:32:45.638Z,32.95
2023-05-20T14:35:19.406Z,32.79
2023-05-20T14:38:07.796Z,32.44
2023-05-20T14:40:41.204Z,32.07
2023-05-20T14:43:29.043Z,32.20
2023-05-20T14:46:03.310Z,32.24
2023-05-20T14:48:50.952Z,31.70
2023-05-20T14:51:24.313Z,30.06
2023-05-20T14:54:12.155Z,28.86
2023-05-20T14:56:47.568Z,27.90
2023-05-20T14:59:35.084Z,27.87
2023-05-20T15:02:08.319Z,28.35
2023-05-20T15:04:43.884Z,29.08
2023-05-20T15:07:31.667Z,29.56
2023-05-20T15:10:05.745Z,30.06
2023-05-20T15:12:53.615Z,30.31
2023-05-20T15:15:41.280Z,30.30
2023-05-20T15:18:14.800Z,30.54
2023-05-20T15:20:48.330Z,30.78
2023-05-20T15:23:36.191Z,31.20
2023-05-20T15:26:11.220Z,31.31
2023-05-20T15:28:59.087Z,31.67
2023-05-20T15:31:32.825Z,31.67
2023-05-20T15:34:20.844Z,31.93
2023-05-20T15:36:54.261Z,31.99
2023-05-20T15:39:42.365Z,32.01
2023-05-20T15:42:30.262Z,32.18
2023-05-20T15:45:03.903Z,32.49
2023-05-20T15:47:51.726Z,32.88
2023-05-20T15:50:26.116Z,33.18
2023-05-20T15:53:13.832Z,33.40
2023-05-20T15:55:47.324Z,33.66
2023-05-20T15:58:34.948Z,33.82
2023-05-20T16:01:23.626Z,33.89
2023-05-20T16:03:58.218Z,34.10
2023-05-20T16:06:46.066Z,34.13
2023-05-20T16:09:33.449Z,34.39
2023-05-20T16:12:07.958Z,34.84
2023-05-20T16:14:55.810Z,34.76
2023-05-20T16:17:43.887Z,35.00
2023-05-20T16:20:17.308Z,35.60
2023-05-20T16:23:05.713Z,35.51
2023-05-20T16:25:39.257Z,35.95
2023-05-20T16:28:54.209Z,36.27
2023-05-20T16:31:29.121Z,37.12
2023-05-20T16:34:03.848Z,37.43
2023-05-20T16:36:51.490Z,37.25
2023-05-20T16:39:25.032Z,38.37
2023-05-20T16:42:12.958Z,38.00
2023-05-20T16:44:47.369Z,38.61
2023-05-20T16:47:36.772Z,38.16
2023-05-20T16:50:12.740Z,38.78
2023-05-20T16:53:00.754Z,38.43
2023-05-20T16:55:34.287Z,39.67
2023-05-20T16:58:21.875Z,39.58
2023-05-20T17:00:55.593Z,40.57
2023-05-20T17:03:42.928Z,39.94
2023-05-20T17:06:17.694Z,40.73
2023-05-20T17:09:06.924Z,41.12
2023-05-20T17:11:40.228Z,42.73
2023-05-20T17:14:27.839Z,41.92
2023-05-20T17:17:01.430Z,42.57
2023-05-20T17:19:48.891Z,42.12
2023-05-20T17:22:22.131Z,44.04
2023-05-20T17:24:55.707Z,45.05
2023-05-20T17:27:43.332Z,43.78
2023-05-20T17:30:16.865Z,45.51
2023-05-20T17:33:04.588Z,44.66
2023-05-20T17:35:38.245Z,45.99
2023-05-20T17:38:26.905Z,44.56
2023-05-20T17:41:00.704Z,46.09
2023-05-20T17:43:34.161Z,46.50
2023-05-20T17:46:24.723Z,44.95
2023-05-20T17:48:58.401Z,47.31
2023-05-20T17:51:46.241Z,46.00
2023-05-20T17:54:19.866Z,48.25
2023-05-20T17:57:08.027Z,46.94
2023-05-20T17:59:45.081Z,49.29
2023-05-20T18:02:33.097Z,47.08
2023-05-20T18:05:07.767Z,48.53
2023-05-20T18:07:56.150Z,46.70
2023-05-20T18:10:29.370Z,48.10
2023-05-20T18:13:17.049Z,46.66
2023-05-20T18:15:50.782Z,48.37
2023-05-20T18:18:38.461Z,47.19
2023-05-20T18:21:11.877Z,48.46
2023-05-20T18:23:59.462Z,47.30
2023-05-20T18:26:32.937Z,48.69
2023-05-20T18:29:20.358Z,47.55
2023-05-20T18:32:09.862Z,47.43
2023-05-20T18:34:43.543Z,48.80
2023-05-20T18:37:31.632Z,47.63
2023-05-20T18:40:06.575Z,49.27
2023-05-20T18:42:40.051Z,49.76
2023-05-20T18:45:27.877Z,48.88
2023-05-20T18:48:25.593Z,49.10
2023-05-20T18:51:04.816Z,48.93
2023-05-20T18:53:38.113Z,50.49
2023-05-20T18:56:48.508Z,47.95
2023-05-20T18:59:23.308Z,50.12
2023-05-20T19:02:11.582Z,48.88
2023-05-20T19:04:59.214Z,49.00
2023-05-20T19:07:33.200Z,51.10
2023-05-20T19:10:20.907Z,50.77
2023-05-20T19:13:08.654Z,51.53
2023-05-20T19:15:58.081Z,52.24
2023-05-20T19:18:31.433Z,53.36
2023-05-20T19:21:04.898Z,52.45
2023-05-20T19:23:38.041Z,52.93
2023-05-20T19:26:26.138Z,51.78
2023-05-20T19:28:59.531Z,52.19
2023-05-20T19:31:32.958Z,51.91
2023-05-20T19:34:20.727Z,51.21
2023-05-20T19:37:08.728Z,51.13
2023-05-20T19:39:56.268Z,50.77
2023-05-20T19:42:29.778Z,51.53
2023-05-20T19:45:17.862Z,50.62
2023-05-20T19:47:51.769Z,51.96
2023-05-20T19:50:39.483Z,50.83
2023-05-20T19:53:13.995Z,52.00
2023-05-20T19:56:02.029Z,50.96
2023-05-20T19:58:49.972Z,51.39
2023-05-20T20:01:23.692Z,52.74
2023-05-20T20:04:13.360Z,52.09
2023-05-20T20:06:48.266Z,53.48
2023-05-20T20:09:36.046Z,52.36
2023-05-20T20:12:10.399Z,53.77
2023-05-20T20:14:44.283Z,54.08
2023-05-20T20:17:34.081Z,53.67
2023-05-20T20:20:10.706Z,54.34
2023-05-20T20:22:44.647Z,54.11
2023-05-20T20:25:18.625Z,54.16
2023-05-20T20:28:06.319Z,53.89
2023-05-20T20:30:40.242Z,54.74
2023-05-20T20:33:28.752Z,53.74
2023-05-20T20:36:02.546Z,55.03
2023-05-20T20:38:50.809Z,53.92
2023-05-20T20:41:25.011Z,54.79
2023-05-20T20:44:16.328Z,54.44
2023-05-20T20:47:04.663Z,54.51
2023-05-20T20:49:38.106Z,55.38
2023-05-20T20:52:11.596Z,55.28
2023-05-20T20:54:59.513Z,54.72
2023-05-20T20:57:37.437Z,55.18
2023-05-20T21:00:26.569Z,54.55
2023-05-20T21:03:00.245Z,54.68
2023-05-20T21:05:48.693Z,54.42
2023-05-20T21:08:24.710Z,56.01
2023-05-20T21:11:12.232Z,54.89
2023-05-20T21:13:45.637Z,55.32
2023-05-20T21:16:33.505Z,54.65
2023-05-20T21:19:07.130Z,55.31
2023-05-20T21:21:55.409Z,55.13
2023-05-20T21:24:43.906Z,55.37
2023-05-20T21:27:31.845Z,55.63
2023-05-20T21:30:05.493Z,56.60
2023-05-20T21:32:39.428Z,56.81
2023-05-20T21:35:27.144Z,55.98
2023-05-20T21:38:00.967Z,57.15
2023-05-20T21:40:34.687Z,57.52
2023-05-20T21:43:08.328Z,57.78
2023-05-20T21:45:55.892Z,56.98
2023-05-20T21:48:29.214Z,57.85
2023-05-20T21:51:16.947Z,56.94
2023-05-20T21:53:50.484Z,57.78
2023-05-20T21:56:39.097Z,57.09
2023-05-20T21:59:12.610Z,58.04
2023-05-20T22:02:01.254Z,57.10
2023-05-20T22:04:34.900Z,58.34
2023-05-20T22:07:22.557Z,56.12
2023-05-20T22:10:10.813Z,55.59
2023-05-20T22:12:58.948Z,55.47
2023-05-20T22:15:32.918Z,56.40
2023-05-20T22:18:22.560Z,55.71
2023-05-20T22:20:56.438Z,56.81
2023-05-20T22:23:44.074Z,55.59
2023-05-20T22:26:32.705Z,55.21
2023-05-20T22:29:21.069Z,54.72
2023-05-20T22:31:54.664Z,55.02
2023-05-20T22:34:28.197Z,54.55
2023-05-20T22:37:16.113Z,53.51
2023-05-20T22:39:49.527Z,54.03
2023-05-20T22:42:37.229Z,53.29
2023-05-20T22:45:12.483Z,53.95
2023-05-20T22:48:00.412Z,53.14
2023-05-20T22:50:35.491Z,53.86
2023-05-20T22:53:08.991Z,53.84
2023-05-20T22:55:56.647Z,53.02
2023-05-20T22:58:32.192Z,53.69
2023-05-20T23:01:07.167Z,53.57
2023-05-20T23:03:54.976Z,52.69
2023-05-20T23:06:28.206Z,53.49
2023-05-20T23:09:16.351Z,52.73
2023-05-20T23:12:04.089Z,52.85
2023-05-20T23:14:52.148Z,52.84
2023-05-20T23:17:25.737Z,53.51
2023-05-20T23:20:16.516Z,52.87
2023-05-20T23:22:49.927Z,53.68
2023-05-20T23:25:24.642Z,53.68
2023-05-20T23:28:12.218Z,52.84
2023-05-20T23:30:46.123Z,53.51
2023-05-20T23:33:24.849Z,53.46
2023-05-20T23:36:10.138Z,52.63
2023-05-20T23:38:58.021Z,52.68
2023-05-20T23:41:31.760Z,53.39
2023-05-20T23:44:19.528Z,52.79
2023-05-20T23:46:54.085Z,53.46
2023-05-20T23:49:41.776Z,52.76
2023-05-20T23:52:15.307Z,53.39
2023-05-20T23:55:02.992Z,52.79
2023-05-20T23:57:36.589Z,53.44
